Volga-4011 — UBNJ — position and weather

sailwx.info

Track history (hours):
 
Tides and Currents Weather Stations Pressure Air Temp Water Temp Dewpoint Dewpoint Depression Visibility Wind Speed Wind Dir Waves Ship Positions

Volga-4011

Last reported at 2016-Sep-30 06:21 UTC. Time now 2016-Oct-01 20:36 UTC.
Position N 31°26' E 121°29'.

Length 140 m; draft 4.6 m.

Type: Cargo ship. MMSI: 273358200.

Date/timePositionNaut miles runAvg speedWind from/ knotsBaromVisibWave heightAir tempDewpointWater temp
2016-Sep-30 06:21N 31°26' E 121°29'21 7.4
2016-Sep-30 03:34N 31°40' E 121°11'9 0.8
2016-Sep-29 16:10N 31°45' E 121°02'0 0.0
2016-Sep-29 15:16N 31°45' E 121°02'4 0.3
2016-Sep-29 00:29N 31°44' E 121°07'0 0.0
2016-Sep-28 21:31N 31°44' E 121°07'0 0.0
2016-Sep-28 19:30N 31°44' E 121°07'0 0.1
2016-Sep-28 16:23N 31°44' E 121°07'0 0.0
2016-Sep-28 15:30N 31°44' E 121°07'0 0.1
2016-Sep-28 12:31N 31°44' E 121°07'0 0.0
2016-Sep-28 08:31N 31°44' E 121°07'0 0.0
2016-Sep-28 03:25N 31°44' E 121°07'0 0.0
2016-Sep-28 02:29N 31°44' E 121°07'0 0.1
2016-Sep-28 01:32N 31°44' E 121°07'0 0.1
2016-Sep-27 23:31N 31°44' E 121°07'0 0.0
2016-Sep-27 19:24N 31°44' E 121°07'0 0.0
2016-Sep-27 14:25N 31°44' E 121°07'0 0.0
2016-Sep-27 13:28N 31°44' E 121°07'0 0.0
2016-Sep-27 10:30N 31°44' E 121°07'4 0.2
2016-Sep-26 13:28N 31°45' E 121°02'0 0.0
2016-Sep-26 11:34N 31°45' E 121°02'0 0.0
2016-Sep-26 08:32N 31°45' E 121°02'11 1.9
2016-Sep-26 02:33N 31°39' E 121°14'8 8.3
2016-Sep-26 01:34N 31°33' E 121°21'9 9.0
2016-Sep-26 00:31N 31°27' E 121°29'  
Track history (hours):
 
Tides and Currents Weather Stations Pressure Air Temp Water Temp Dewpoint Dewpoint Depression Visibility Wind Speed Wind Dir Waves Ship Positions

Volga-4011

Last reported at 2016-Sep-30 06:21 UTC. Time now 2016-Oct-01 20:36 UTC.
Position N 31°26' E 121°29'.

Length 140 m; draft 4.6 m.

Type: Cargo ship. MMSI: 273358200.

Date/timePositionNaut miles runAvg speedWind from/ knotsBaromVisibWave heightAir tempDewpointWater temp
2016-Sep-30 06:21N 31°26' E 121°29'21 7.4
2016-Sep-30 03:34N 31°40' E 121°11'9 0.8
2016-Sep-29 16:10N 31°45' E 121°02'0 0.0
2016-Sep-29 15:16N 31°45' E 121°02'4 0.3
2016-Sep-29 00:29N 31°44' E 121°07'0 0.0
2016-Sep-28 21:31N 31°44' E 121°07'0 0.0
2016-Sep-28 19:30N 31°44' E 121°07'0 0.1
2016-Sep-28 16:23N 31°44' E 121°07'0 0.0
2016-Sep-28 15:30N 31°44' E 121°07'0 0.1
2016-Sep-28 12:31N 31°44' E 121°07'0 0.0
2016-Sep-28 08:31N 31°44' E 121°07'0 0.0
2016-Sep-28 03:25N 31°44' E 121°07'0 0.0
2016-Sep-28 02:29N 31°44' E 121°07'0 0.1
2016-Sep-28 01:32N 31°44' E 121°07'0 0.1
2016-Sep-27 23:31N 31°44' E 121°07'0 0.0
2016-Sep-27 19:24N 31°44' E 121°07'0 0.0
2016-Sep-27 14:25N 31°44' E 121°07'0 0.0
2016-Sep-27 13:28N 31°44' E 121°07'0 0.0
2016-Sep-27 10:30N 31°44' E 121°07'4 0.2
2016-Sep-26 13:28N 31°45' E 121°02'0 0.0
2016-Sep-26 11:34N 31°45' E 121°02'0 0.0
2016-Sep-26 08:32N 31°45' E 121°02'11 1.9
2016-Sep-26 02:33N 31°39' E 121°14'8 8.3
2016-Sep-26 01:34N 31°33' E 121°21'9 9.0
2016-Sep-26 00:31N 31°27' E 121°29'  

Dump ship's entire track history